Time;durP1;ratioP1;P1;durP2;ratioP2;P2;SDS_P1;SDS_P2;PMS_P1;PMS_P2;Temp;Humidity;BMP_temperature;BMP_pressure;BME280_temperature;BME280_humidity;BME280_pressure;Samples;Min_cycle;Max_cycle;Signal;HPM_P1;HPM_P2
2022/04/13 00:01:15;;;;;;;8.77;3.40;;;15.90;93.90;;;;;;4926714;29;20227;-86
2022/04/13 00:03:42;;;;;;;6.10;3.30;;;16.00;93.90;;;;;;4907963;29;20208;-86
2022/04/13 00:06:08;;;;;;;9.10;4.10;;;15.70;95.00;;;;;;4921923;29;20196;-86
2022/04/13 00:08:34;;;;;;;11.17;4.27;;;15.40;96.30;;;;;;4926953;29;20447;-86
2022/04/13 00:11:00;;;;;;;6.57;3.80;;;15.20;97.70;;;;;;4935393;29;20193;-86
2022/04/13 00:13:26;;;;;;;7.40;4.60;;;14.90;99.10;;;;;;4937801;29;20236;-86
2022/04/13 00:15:52;;;;;;;5.37;3.73;;;14.70;99.90;;;;;;4935859;29;20468;-87
2022/04/13 00:18:17;;;;;;;7.00;3.93;;;14.50;99.90;;;;;;4930084;29;20436;-86
2022/04/13 00:20:45;;;;;;;6.40;4.20;;;;;;;;;;4929716;29;20197;-87
2022/04/13 00:23:11;;;;;;;5.33;4.07;;;14.00;99.90;;;;;;4918441;29;20248;-87
2022/04/13 00:25:39;;;;;;;7.37;4.20;;;14.20;99.90;;;;;;4930280;29;20817;-85
2022/04/13 00:28:07;;;;;;;5.00;3.60;;;14.20;99.90;;;;;;4931654;29;20484;-86
2022/04/13 00:30:32;;;;;;;5.63;3.73;;;14.30;99.90;;;;;;4914101;29;20806;-86
2022/04/13 00:32:58;;;;;;;4.00;3.10;;;14.10;99.90;;;;;;4928245;29;20441;-88
2022/04/13 00:35:24;;;;;;;7.70;3.70;;;13.60;99.90;;;;;;4919855;29;20475;-87
2022/04/13 00:37:49;;;;;;;5.17;3.83;;;13.40;99.90;;;;;;4930672;29;20201;-87
2022/04/13 00:40:15;;;;;;;6.00;3.60;;;13.40;99.90;;;;;;4909420;29;20200;-87
2022/04/13 00:42:40;;;;;;;9.10;3.77;;;13.50;99.90;;;;;;4909303;29;20892;-87
2022/04/13 00:45:06;;;;;;;5.87;3.40;;;13.50;99.90;;;;;;4928436;29;20277;-86
2022/04/13 00:47:38;;;;;;;4.80;3.30;;;13.60;99.90;;;;;;4933028;29;20273;-88
2022/04/13 00:50:04;;;;;;;10.90;3.60;;;13.70;99.90;;;;;;4930558;29;21278;-86
2022/04/13 00:52:33;;;;;;;8.70;3.50;;;13.70;99.90;;;;;;4930131;29;20480;-87
2022/04/13 00:54:59;;;;;;;6.03;3.63;;;13.60;99.90;;;;;;4910579;29;20471;-85
2022/04/13 00:57:28;;;;;;;5.13;3.70;;;13.50;99.90;;;;;;4916803;29;20464;-86
2022/04/13 00:59:55;;;;;;;7.13;4.17;;;13.40;99.90;;;;;;4910083;29;20489;-87
2022/04/13 01:02:23;;;;;;;6.53;3.77;;;13.40;99.90;;;;;;4910721;29;20441;-87
2022/04/13 01:04:50;;;;;;;3.90;2.90;;;13.30;99.90;;;;;;4922563;29;20458;-88
2022/04/13 01:07:15;;;;;;;4.97;3.60;;;13.30;99.90;;;;;;4912610;29;21264;-86
2022/04/13 01:09:41;;;;;;;5.53;2.93;;;13.20;99.90;;;;;;4910801;29;20442;-86
2022/04/13 01:12:08;;;;;;;3.70;2.60;;;13.10;99.90;;;;;;4911864;29;20208;-87
2022/04/13 01:14:34;;;;;;;4.65;2.60;;;12.80;99.90;;;;;;4910721;29;20899;-86
2022/04/13 01:17:00;;;;;;;3.67;2.85;;;12.40;99.90;;;;;;4912068;29;20201;-87
2022/04/13 01:19:27;;;;;;;5.65;3.08;;;12.20;99.90;;;;;;4903991;29;20704;-86
2022/04/13 01:21:53;;;;;;;3.70;3.40;;;12.20;99.90;;;;;;4906599;29;20283;-88
2022/04/13 01:24:21;;;;;;;4.20;2.78;;;12.20;99.90;;;;;;4909191;29;21028;-87
2022/04/13 01:26:47;;;;;;;4.65;3.35;;;12.30;99.90;;;;;;4905301;29;20312;-87
2022/04/13 01:29:13;;;;;;;3.17;2.70;;;12.30;99.90;;;;;;4904140;29;20277;-86
2022/04/13 01:31:43;;;;;;;7.40;2.80;;;12.20;99.90;;;;;;4901194;29;20447;-86
2022/04/13 01:34:09;;;;;;;4.38;2.03;;;12.20;99.90;;;;;;4908335;29;20441;-88
2022/04/13 01:36:36;;;;;;;2.70;2.30;;;12.20;99.90;;;;;;4903322;29;20242;-87
2022/04/13 01:39:04;;;;;;;3.60;2.30;;;12.20;99.90;;;;;;4919914;29;20214;-87
2022/04/13 01:41:29;;;;;;;3.38;2.47;;;12.20;99.90;;;;;;4908067;29;20448;-87
2022/04/13 01:43:56;;;;;;;9.10;2.33;;;12.20;99.90;;;;;;4903652;29;20202;-88
2022/04/13 01:46:21;;;;;;;4.60;3.15;;;12.10;99.90;;;;;;4904750;29;20684;-87
2022/04/13 01:48:47;;;;;;;4.03;2.57;;;11.90;99.90;;;;;;4906987;29;20189;-87
2022/04/13 01:51:14;;;;;;;3.50;3.20;;;11.80;99.90;;;;;;4904437;29;20245;-87
2022/04/13 01:53:40;;;;;;;6.55;3.47;;;11.80;99.90;;;;;;4909962;29;20961;-87
2022/04/13 01:56:06;;;;;;;2.70;2.07;;;11.70;99.90;;;;;;4905001;29;20242;-88
2022/04/13 01:58:31;;;;;;;15.10;4.30;;;11.90;99.90;;;;;;4905793;29;20453;-86
2022/04/13 02:00:57;;;;;;;5.00;4.03;;;11.50;99.90;;;;;;4904577;29;20181;-86
2022/04/13 02:03:24;;;;;;;7.80;4.00;;;11.40;99.90;;;;;;4909120;29;20241;-87
2022/04/13 02:05:52;;;;;;;3.85;3.53;;;11.40;99.90;;;;;;4908736;29;20190;-86
2022/04/13 02:08:21;;;;;;;8.40;3.92;;;11.30;99.90;;;;;;4912534;29;20181;-86
2022/04/13 02:10:47;;;;;;;6.85;2.60;;;11.40;99.90;;;;;;4907195;29;20181;-86
2022/04/13 02:13:13;;;;;;;3.93;2.70;;;11.30;99.90;;;;;;4905796;29;20189;-85
2022/04/13 02:15:39;;;;;;;2.90;1.98;;;;;;;;;;4910922;29;20447;-87
2022/04/13 02:18:06;;;;;;;3.00;2.53;;;10.90;99.90;;;;;;4907387;29;20733;-87
2022/04/13 02:20:32;;;;;;;5.70;2.65;;;10.90;99.90;;;;;;4904625;29;20442;-86
2022/04/13 02:22:57;;;;;;;3.60;2.75;;;10.60;99.90;;;;;;4912127;29;20178;-85
2022/04/13 02:25:23;;;;;;;4.53;2.33;;;10.50;99.90;;;;;;4908734;29;20192;-87
2022/04/13 02:27:48;;;;;;;4.53;2.30;;;10.40;99.90;;;;;;4907728;29;20216;-86
2022/04/13 02:30:18;;;;;;;6.80;2.60;;;10.30;99.90;;;;;;4908422;29;20178;-85
2022/04/13 02:32:44;;;;;;;3.35;2.75;;;10.30;99.90;;;;;;4903869;29;20189;-85
2022/04/13 02:35:10;;;;;;;4.40;2.47;;;10.30;99.90;;;;;;4909806;29;20241;-85
2022/04/13 02:37:36;;;;;;;7.35;2.35;;;10.30;99.90;;;;;;4911662;29;21058;-87
2022/04/13 02:40:02;;;;;;;4.67;3.23;;;10.30;99.90;;;;;;4908782;29;20680;-86
2022/04/13 02:42:32;;;;;;;8.52;2.80;;;10.30;99.90;;;;;;4911767;29;20245;-85
2022/04/13 02:44:58;;;;;;;9.05;2.88;;;10.90;99.90;;;;;;4912920;29;20192;-86
2022/04/13 02:47:23;;;;;;;5.43;2.40;;;10.10;99.90;;;;;;4912578;29;20218;-86
2022/04/13 02:49:49;;;;;;;7.40;5.27;;;10.10;99.90;;;;;;4911210;29;20687;-88
2022/04/13 02:52:14;;;;;;;8.00;4.50;;;10.20;99.90;;;;;;4908056;29;20277;-86
2022/04/13 02:54:40;;;;;;;9.17;6.07;;;10.40;99.90;;;;;;4916561;29;20668;-86
2022/04/13 02:57:06;;;;;;;8.63;3.13;;;10.60;99.90;;;;;;4910530;29;20197;-86
2022/04/13 02:59:31;;;;;;;6.03;4.37;;;10.60;99.90;;;;;;4905364;29;20206;-87
2022/04/13 03:01:56;;;;;;;5.67;3.30;;;10.70;99.90;;;;;;4908952;29;21231;-87
2022/04/13 03:04:22;;;;;;;5.97;3.20;;;10.70;99.90;;;;;;4905921;29;20193;-88
2022/04/13 03:06:48;;;;;;;3.60;2.70;;;10.70;99.90;;;;;;4911957;29;20223;-86
2022/04/13 03:09:13;;;;;;;5.63;2.80;;;10.70;99.90;;;;;;4911654;29;20533;-87
2022/04/13 03:11:40;;;;;;;5.20;3.03;;;10.70;99.90;;;;;;4908208;29;20189;-87
2022/04/13 03:14:06;;;;;;;9.63;3.20;;;10.80;99.90;;;;;;4908724;29;20189;-86
2022/04/13 03:16:32;;;;;;;3.93;3.20;;;;;;;;;;4918804;29;20210;-87
2022/04/13 03:18:57;;;;;;;5.35;3.20;;;10.90;99.90;;;;;;4907311;29;20192;-86
2022/04/13 03:21:24;;;;;;;5.93;3.70;;;10.80;99.90;;;;;;4904399;29;20815;-87
2022/04/13 03:23:49;;;;;;;7.38;3.38;;;10.80;99.90;;;;;;4909711;29;20722;-86
2022/04/13 03:26:15;;;;;;;5.47;4.33;;;10.80;99.90;;;;;;4908900;29;20222;-87
2022/04/13 03:28:40;;;;;;;10.23;4.17;;;10.70;99.90;;;;;;4907255;29;20190;-87
2022/04/13 03:31:06;;;;;;;6.17;4.30;;;10.80;99.90;;;;;;4910347;29;20236;-87
2022/04/13 03:33:31;;;;;;;4.93;3.60;;;10.80;99.90;;;;;;4912288;29;20190;-87
2022/04/13 03:35:57;;;;;;;5.10;3.43;;;10.80;99.90;;;;;;4916232;29;20206;-87
2022/04/13 03:38:22;;;;;;;6.87;3.90;;;10.80;99.90;;;;;;4911110;29;20233;-86
2022/04/13 03:40:48;;;;;;;10.07;3.50;;;10.80;99.90;;;;;;4925375;29;20186;-86
2022/04/13 03:43:13;;;;;;;5.03;3.10;;;10.80;99.90;;;;;;4927294;29;20186;-87
2022/04/13 03:45:39;;;;;;;4.40;3.33;;;10.70;99.90;;;;;;4910208;29;20569;-87
2022/04/13 03:48:04;;;;;;;4.73;3.33;;;10.70;99.90;;;;;;4913165;29;20210;-86
2022/04/13 03:50:30;;;;;;;5.20;3.43;;;10.70;99.90;;;;;;4914027;29;20186;-85
2022/04/13 03:52:55;;;;;;;6.70;2.83;;;10.70;99.90;;;;;;4916927;29;20248;-87
2022/04/13 03:55:22;;;;;;;8.40;3.43;;;10.70;99.90;;;;;;4911869;29;20199;-87
2022/04/13 03:57:50;;;;;;;3.65;3.00;;;10.60;99.90;;;;;;4910428;29;20220;-87
2022/04/13 04:00:17;;;;;;;4.90;3.28;;;10.60;99.90;;;;;;4906517;29;20198;-87
2022/04/13 04:02:43;;;;;;;4.68;2.75;;;10.60;99.90;;;;;;4910905;29;20186;-88
2022/04/13 04:05:10;;;;;;;4.80;3.40;;;10.60;99.90;;;;;;4912665;29;20190;-88
2022/04/13 04:07:36;;;;;;;9.32;2.60;;;10.50;99.90;;;;;;4910580;29;20217;-86
2022/04/13 04:10:03;;;;;;;7.20;3.35;;;10.50;99.90;;;;;;4908853;29;20284;-86
2022/04/13 04:12:28;;;;;;;5.03;3.13;;;10.30;99.90;;;;;;4907538;29;20190;-87
2022/04/13 04:14:59;;;;;;;5.97;3.77;;;10.20;99.90;;;;;;4911490;29;20232;-87
2022/04/13 04:17:25;;;;;;;6.55;3.20;;;10.20;99.90;;;;;;4906588;29;20852;-86
2022/04/13 04:19:50;;;;;;;5.40;3.60;;;10.20;99.90;;;;;;4916859;29;20257;-86
2022/04/13 04:22:16;;;;;;;7.77;3.70;;;10.20;99.90;;;;;;4900499;29;20198;-87
2022/04/13 04:24:41;;;;;;;5.73;3.00;;;10.10;99.90;;;;;;4909653;29;21644;-86
2022/04/13 04:27:07;;;;;;;4.80;2.83;;;10.10;99.90;;;;;;4904624;29;20604;-86
2022/04/13 04:29:32;;;;;;;4.30;3.57;;;10.10;99.90;;;;;;4906772;29;20232;-88
2022/04/13 04:31:59;;;;;;;5.80;3.90;;;10.10;99.90;;;;;;4907439;29;20186;-88
2022/04/13 04:34:26;;;;;;;5.28;3.75;;;10.10;99.90;;;;;;4904513;29;20186;-87
2022/04/13 04:36:51;;;;;;;3.35;2.95;;;10.10;99.90;;;;;;4912969;29;20209;-87
2022/04/13 04:39:17;;;;;;;7.00;3.43;;;10.00;99.90;;;;;;4921891;29;20562;-85
2022/04/13 04:41:43;;;;;;;11.83;3.97;;;10.00;99.90;;;;;;4905794;29;21619;-87
2022/04/13 04:44:10;;;;;;;6.53;3.87;;;10.00;99.90;;;;;;4905453;29;20498;-86
2022/04/13 04:46:36;;;;;;;6.72;3.70;;;10.00;99.90;;;;;;4907490;29;20296;-85
2022/04/13 04:49:06;;;;;;;4.93;3.10;;;10.00;99.90;;;;;;4910199;29;20197;-86
2022/04/13 04:51:32;;;;;;;3.92;3.47;;;10.10;99.90;;;;;;4903520;29;20197;-85
2022/04/13 04:54:02;;;;;;;10.10;3.90;;;10.10;99.90;;;;;;4903957;29;20186;-86
2022/04/13 04:56:28;;;;;;;5.03;3.30;;;10.20;99.90;;;;;;4901558;29;20502;-86
2022/04/13 04:58:54;;;;;;;5.18;3.30;;;10.30;99.90;;;;;;4911265;29;20201;-86
2022/04/13 05:01:19;;;;;;;8.73;4.20;;;10.30;99.90;;;;;;4906036;29;20196;-86
2022/04/13 05:03:48;;;;;;;8.97;4.30;;;10.30;99.90;;;;;;4903158;29;20445;-86
2022/04/13 05:06:20;;;;;;;7.78;5.72;;;10.50;99.90;;;;;;4906026;29;20220;-87
2022/04/13 05:08:46;;;;;;;8.80;6.20;;;10.60;99.90;;;;;;4921532;29;20181;-86
2022/04/13 05:11:11;;;;;;;7.13;5.03;;;10.90;99.90;;;;;;4926953;29;20297;-87
2022/04/13 05:13:38;;;;;;;5.83;4.80;;;11.10;99.90;;;;;;4907025;29;20181;-85
2022/04/13 05:16:05;;;;;;;6.90;4.53;;;11.40;99.90;;;;;;4905783;29;20684;-87
2022/04/13 05:18:31;;;;;;;7.65;3.67;;;11.80;99.90;;;;;;4920016;29;20200;-85
2022/04/13 05:20:57;;;;;;;7.40;3.43;;;12.10;99.90;;;;;;4906214;29;20233;-86
2022/04/13 05:23:22;;;;;;;3.20;2.47;;;12.50;99.90;;;;;;4906424;29;20207;-87
2022/04/13 05:25:48;;;;;;;6.80;3.20;;;13.20;99.90;;;;;;4916746;29;20669;-86
2022/04/13 05:28:15;;;;;;;6.10;3.63;;;13.20;99.90;;;;;;4899689;29;20173;-86
2022/04/13 05:30:40;;;;;;;5.95;4.70;;;13.70;99.90;;;;;;4922660;29;20640;-87
2022/04/13 05:33:06;;;;;;;7.67;4.53;;;14.20;99.90;;;;;;4905718;29;20213;-87
2022/04/13 05:35:32;;;;;;;5.40;4.90;;;14.70;99.90;;;;;;4902051;29;20189;-86
2022/04/13 05:37:59;;;;;;;7.90;4.43;;;14.90;99.90;;;;;;4921815;29;20456;-85
2022/04/13 05:40:24;;;;;;;6.80;3.90;;;14.80;99.90;;;;;;4903310;29;20457;-86
2022/04/13 05:42:51;;;;;;;13.97;5.07;;;14.90;99.90;;;;;;4907068;29;20996;-87
2022/04/13 05:45:17;;;;;;;5.27;4.43;;;15.30;99.90;;;;;;4919405;29;20973;-86
2022/04/13 05:47:43;;;;;;;9.30;4.60;;;15.80;99.90;;;;;;4919822;29;21218;-85
2022/04/13 05:50:11;;;;;;;10.90;4.17;;;16.50;99.90;;;;;;4921390;29;20170;-86
2022/04/13 05:52:37;;;;;;;4.50;3.57;;;17.10;99.90;;;;;;4914880;29;20445;-86
2022/04/13 05:55:03;;;;;;;8.00;4.70;;;17.60;99.90;;;;;;4916563;29;20448;-86
2022/04/13 05:57:29;;;;;;;7.37;5.10;;;18.20;99.90;;;;;;4921909;29;20460;-87
2022/04/13 05:59:55;;;;;;;11.47;7.20;;;18.60;99.90;;;;;;4920546;29;20573;-88
2022/04/13 06:02:20;;;;;;;9.63;6.50;;;19.00;99.90;;;;;;4920933;29;20300;-86
2022/04/13 06:04:46;;;;;;;6.67;5.47;;;19.40;99.90;;;;;;4906478;29;20847;-84
2022/04/13 06:07:12;;;;;;;14.40;5.20;;;19.90;99.90;;;;;;4904721;29;20213;-86
2022/04/13 06:09:38;;;;;;;8.10;5.90;;;20.00;99.90;;;;;;4920022;29;20994;-85
2022/04/13 06:12:04;;;;;;;6.27;5.33;;;20.00;99.90;;;;;;4922531;29;20236;-85
2022/04/13 06:14:29;;;;;;;8.50;5.40;;;19.90;99.90;;;;;;4907762;29;20233;-87
2022/04/13 06:16:55;;;;;;;7.47;5.93;;;20.20;99.90;;;;;;4903594;29;20468;-86
2022/04/13 06:19:20;;;;;;;6.77;6.03;;;20.90;99.90;;;;;;4902380;29;20408;-88
2022/04/13 06:21:46;;;;;;;7.17;5.30;;;21.50;99.90;;;;;;4895682;29;20200;-88
2022/04/13 06:24:12;;;;;;;8.20;5.53;;;21.80;99.90;;;;;;4903155;29;20186;-86
2022/04/13 06:26:38;;;;;;;8.03;5.07;;;22.00;98.40;;;;;;4920404;29;20216;-87
2022/04/13 06:29:04;;;;;;;5.97;5.37;;;21.30;98.20;;;;;;4915782;29;20275;-88
2022/04/13 06:31:30;;;;;;;9.47;6.13;;;20.90;99.20;;;;;;4915933;29;20444;-87
2022/04/13 06:33:56;;;;;;;6.97;5.90;;;20.50;99.60;;;;;;4916531;29;20447;-88
2022/04/13 06:36:21;;;;;;;7.30;6.43;;;20.30;99.10;;;;;;4923475;29;20485;-86
2022/04/13 06:38:47;;;;;;;7.67;6.10;;;20.80;99.70;;;;;;4928572;29;20452;-89
2022/04/13 06:41:13;;;;;;;6.80;5.73;;;21.90;99.00;;;;;;4921403;29;20606;-87
2022/04/13 06:43:40;;;;;;;9.00;6.83;;;22.80;96.80;;;;;;4925947;29;20213;-87
2022/04/13 06:46:06;;;;;;;10.77;6.77;;;23.00;95.50;;;;;;4905714;29;20544;-86
2022/04/13 06:48:32;;;;;;;6.50;5.90;;;23.70;94.50;;;;;;4911998;29;20448;-87
2022/04/13 06:50:59;;;;;;;7.23;6.53;;;23.00;93.90;;;;;;4915142;29;20814;-87
2022/04/13 06:53:25;;;;;;;8.80;5.80;;;23.30;94.30;;;;;;4918141;29;20448;-85
2022/04/13 06:55:51;;;;;;;7.27;6.27;;;24.30;92.30;;;;;;4916711;29;21301;-89
2022/04/13 06:58:18;;;;;;;7.10;5.23;;;24.30;91.90;;;;;;4915372;29;20457;-87
2022/04/13 07:00:44;;;;;;;7.93;6.73;;;24.20;92.20;;;;;;4915635;29;20194;-85
2022/04/13 07:03:09;;;;;;;7.53;6.20;;;24.10;91.00;;;;;;4924270;29;20458;-87
2022/04/13 07:05:35;;;;;;;7.60;5.60;;;;;;;;;;4922127;29;20284;-88
2022/04/13 07:08:02;;;;;;;7.40;6.00;;;24.10;90.40;;;;;;4906073;29;21241;-86
2022/04/13 07:10:32;;;;;;;6.90;6.30;;;24.40;90.80;;;;;;4905420;29;20442;-86
2022/04/13 07:12:58;;;;;;;8.67;6.40;;;24.30;89.70;;;;;;4901155;29;20465;-87
2022/04/13 07:15:25;;;;;;;6.90;6.20;;;23.80;90.30;;;;;;4903494;29;20949;-89
2022/04/13 07:17:51;;;;;;;10.57;6.83;;;;;;;;;;4904479;29;20469;-88
2022/04/13 07:20:17;;;;;;;7.37;6.53;;;24.30;90.40;;;;;;4918751;29;20443;-88
2022/04/13 07:22:46;;;;;;;9.30;6.43;;;24.50;89.10;;;;;;4897637;29;20446;-87
2022/04/13 07:25:12;;;;;;;9.27;7.33;;;;;;;;;;4901740;29;20609;-87
2022/04/13 07:27:38;;;;;;;6.93;6.23;;;25.30;86.60;;;;;;4892948;29;20607;-87
2022/04/13 07:30:04;;;;;;;8.77;5.57;;;26.40;87.10;;;;;;4897789;29;20438;-87
2022/04/13 07:32:30;;;;;;;7.30;6.60;;;;;;;;;;4897719;29;20270;-87
2022/04/13 07:35:00;;;;;;;8.70;6.73;;;28.30;78.50;;;;;;4900196;29;20447;-87
2022/04/13 07:37:31;;;;;;;10.53;7.93;;;28.30;73.00;;;;;;4916801;29;20476;-88
2022/04/13 07:39:57;;;;;;;7.13;6.47;;;28.30;73.90;;;;;;4903596;29;20459;-88
2022/04/13 07:42:23;;;;;;;10.90;7.30;;;;;;;;;;4899785;29;20508;-88
2022/04/13 07:44:50;;;;;;;11.50;7.50;;;26.00;77.70;;;;;;4899654;29;20446;-87
2022/04/13 07:47:15;;;;;;;7.67;6.40;;;26.10;80.70;;;;;;4899647;29;20476;-87
2022/04/13 07:49:45;;;;;;;9.33;6.80;;;26.10;78.50;;;;;;4919729;29;20981;-88
2022/04/13 07:52:11;;;;;;;8.37;6.80;;;;;;;;;;4897858;29;20206;-87
2022/04/13 07:54:37;;;;;;;12.63;7.63;;;;;;;;;;4895698;29;21003;-87
2022/04/13 07:57:03;;;;;;;9.40;6.77;;;24.90;77.30;;;;;;4902126;29;20593;-87
2022/04/13 07:59:29;;;;;;;13.97;8.07;;;23.50;81.60;;;;;;4905600;29;20453;-88
2022/04/13 08:01:55;;;;;;;18.47;7.87;;;23.90;84.80;;;;;;4900363;29;20209;-87
2022/04/13 08:04:20;;;;;;;11.23;8.20;;;24.70;84.20;;;;;;4912752;29;21291;-86
2022/04/13 08:06:46;;;;;;;15.23;7.77;;;;;;;;;;4899401;29;20215;-88
2022/04/13 08:09:12;;;;;;;9.27;7.80;;;26.50;78.40;;;;;;4905160;29;20711;-88
2022/04/13 08:11:38;;;;;;;13.97;8.47;;;;;;;;;;4907188;29;20456;-87
2022/04/13 08:14:04;;;;;;;12.03;8.17;;;;;;;;;;4903727;29;20217;-87
2022/04/13 08:16:30;;;;;;;10.37;7.77;;;;;;;;;;4906897;29;20521;-88
2022/04/13 08:18:56;;;;;;;11.97;8.37;;;29.40;69.70;;;;;;4905223;29;20582;-87
2022/04/13 08:21:22;;;;;;;10.67;7.93;;;29.40;68.00;;;;;;4900710;29;20455;-86
2022/04/13 08:23:47;;;;;;;10.10;9.10;;;;;;;;;;4906972;29;20788;-87
2022/04/13 08:26:13;;;;;;;11.40;9.07;;;;;;;;;;4908241;29;20207;-86
2022/04/13 08:28:39;;;;;;;11.20;9.40;;;28.20;68.70;;;;;;4906240;29;20458;-88
2022/04/13 08:31:07;;;;;;;12.07;8.43;;;27.80;68.50;;;;;;4888858;29;20430;-86
2022/04/13 08:33:33;;;;;;;11.97;8.43;;;;;;;;;;4922313;29;20198;-88
2022/04/13 08:35:59;;;;;;;15.73;8.97;;;28.40;68.50;;;;;;4906479;29;20553;-87
2022/04/13 08:38:25;;;;;;;13.30;7.97;;;;;;;;;;4899383;29;20562;-87
2022/04/13 08:41:00;;;;;;;12.27;8.50;;;29.10;66.30;;;;;;4901773;29;20193;-87
2022/04/13 08:43:45;;;;;;;8.50;7.43;;;29.70;63.80;;;;;;4904928;29;20448;-86
2022/04/13 08:46:16;;;;;;;17.43;11.07;;;30.60;64.60;;;;;;4907155;29;20481;-87
2022/04/13 08:48:45;;;;;;;12.33;11.40;;;32.00;60.10;;;;;;4904202;29;20529;-87
2022/04/13 08:51:15;;;;;;;15.53;14.10;;;32.70;58.40;;;;;;4900486;29;20446;-87
2022/04/13 08:53:44;;;;;;;17.13;16.00;;;33.50;53.80;;;;;;4903146;29;20448;-87
2022/04/13 08:56:14;;;;;;;16.17;15.17;;;33.50;54.30;;;;;;4903870;29;20526;-88
2022/04/13 08:59:01;;;;;;;17.63;16.33;;;33.80;53.00;;;;;;4890671;29;20453;-86
2022/04/13 09:01:56;;;;;;;17.70;16.40;;;33.80;53.60;;;;;;4900395;29;20525;-86
2022/04/13 09:04:27;;;;;;;18.73;16.97;;;33.10;48.70;;;;;;4882773;29;21104;-88
2022/04/13 09:07:00;;;;;;;18.10;17.10;;;33.30;47.70;;;;;;4898771;29;21302;-87
2022/04/13 09:09:32;;;;;;;18.90;17.20;;;31.40;47.90;;;;;;4905856;29;20457;-86
2022/04/13 09:11:58;;;;;;;17.43;16.30;;;31.30;48.40;;;;;;4907180;29;20509;-88
2022/04/13 09:14:27;;;;;;;18.03;16.57;;;31.60;49.70;;;;;;4916492;29;20460;-88
2022/04/13 09:16:54;;;;;;;16.63;15.53;;;;;;;;;;4902910;29;20470;-87
2022/04/13 09:19:20;;;;;;;17.57;16.03;;;;;;;;;;4916970;29;21193;-87
2022/04/13 09:21:46;;;;;;;16.20;15.40;;;;;;;;;;4905895;29;21876;-87
2022/04/13 09:24:12;;;;;;;17.07;15.73;;;29.20;44.50;;;;;;4902973;29;20455;-86
2022/04/13 09:26:39;;;;;;;15.13;14.03;;;28.30;47.70;;;;;;4922055;29;20535;-87
2022/04/13 09:29:05;;;;;;;13.57;12.37;;;;;;;;;;4903045;29;20488;-87
2022/04/13 09:31:31;;;;;;;11.00;10.10;;;27.80;48.70;;;;;;4907530;29;20486;-87
2022/04/13 09:33:56;;;;;;;12.57;10.87;;;27.80;51.60;;;;;;4927355;29;20446;-86
2022/04/13 09:36:22;;;;;;;12.30;11.50;;;27.80;49.30;;;;;;4910010;29;20796;-88
2022/04/13 09:38:49;;;;;;;11.87;10.80;;;27.40;49.80;;;;;;4907968;29;20208;-87
2022/04/13 09:41:14;;;;;;;11.40;10.30;;;27.60;48.90;;;;;;4909264;29;20187;-88
2022/04/13 09:43:54;;;;;;;12.07;11.27;;;27.10;46.30;;;;;;4904719;29;20473;-86
2022/04/13 09:46:28;;;;;;;11.23;10.33;;;27.50;48.10;;;;;;4907117;29;20485;-88
2022/04/13 09:49:16;;;;;;;12.80;11.50;;;27.70;49.60;;;;;;4909728;29;20456;-88
2022/04/13 09:51:47;;;;;;;11.67;10.73;;;27.90;47.20;;;;;;4905308;29;21000;-86
2022/04/13 09:54:13;;;;;;;11.10;9.87;;;;;;;;;;4903591;29;21062;-86
2022/04/13 09:56:44;;;;;;;13.03;12.03;;;29.70;45.40;;;;;;4915114;29;20442;-86
2022/04/13 09:59:10;;;;;;;12.23;11.33;;;29.80;43.30;;;;;;4926349;29;20520;-86
2022/04/13 10:01:36;;;;;;;12.53;12.00;;;;;;;;;;4927032;29;20474;-88
2022/04/13 10:04:05;;;;;;;13.23;12.50;;;29.70;42.90;;;;;;4909342;29;20198;-88
2022/04/13 10:06:33;;;;;;;5.53;2.80;;;;;;;;;;4908935;29;20467;-87
2022/04/13 10:09:06;;;;;;;7.03;2.67;;;30.20;42.70;;;;;;4906907;29;20450;-86
2022/04/13 10:11:32;;;;;;;5.13;2.37;;;;;;;;;;4922557;29;20439;-87
2022/04/13 10:14:01;;;;;;;9.17;2.77;;;29.50;42.50;;;;;;4907381;29;20437;-88
2022/04/13 10:16:34;;;;;;;5.83;2.03;;;29.50;43.00;;;;;;4907262;29;21576;-86
2022/04/13 10:19:06;;;;;;;5.87;2.53;;;29.30;43.50;;;;;;4904327;29;20450;-87
2022/04/13 10:21:43;;;;;;;4.20;2.87;;;27.80;47.30;;;;;;4913406;29;21023;-86
2022/04/13 10:24:33;;;;;;;3.90;2.20;;;26.90;47.60;;;;;;4911836;29;20457;-88
2022/04/13 10:27:03;;;;;;;4.20;2.27;;;26.70;49.20;;;;;;4906846;29;20575;-88
2022/04/13 10:29:34;;;;;;;6.93;3.10;;;26.10;50.10;;;;;;4907820;29;20451;-88
2022/04/13 10:32:12;;;;;;;3.97;2.37;;;25.70;51.20;;;;;;4909131;29;20808;-87
2022/04/13 10:34:42;;;;;;;5.33;2.40;;;25.10;52.40;;;;;;4924402;29;20448;-87
2022/04/13 10:37:09;;;;;;;5.30;2.20;;;24.70;54.60;;;;;;4902590;29;20489;-88
2022/04/13 10:39:35;;;;;;;6.70;2.20;;;24.90;53.80;;;;;;4902970;29;21322;-87
2022/04/13 10:42:03;;;;;;;2.97;2.67;;;25.30;51.80;;;;;;4903549;29;20449;-86
2022/04/13 10:44:33;;;;;;;5.53;2.77;;;25.60;52.60;;;;;;4901921;29;20441;-85
2022/04/13 10:47:03;;;;;;;4.70;3.20;;;25.60;52.40;;;;;;4903208;29;20512;-86
2022/04/13 10:49:34;;;;;;;8.20;3.20;;;25.70;51.60;;;;;;4901641;29;20441;-86
2022/04/13 10:52:07;;;;;;;7.97;2.20;;;25.50;55.50;;;;;;4902694;29;20452;-87
2022/04/13 10:54:36;;;;;;;3.63;2.07;;;25.00;53.80;;;;;;4903295;29;20446;-86
2022/04/13 10:57:05;;;;;;;6.63;2.13;;;24.60;53.70;;;;;;4915534;29;20466;-85
2022/04/13 10:59:43;;;;;;;5.83;2.47;;;24.80;53.40;;;;;;4915303;29;20599;-87
2022/04/13 11:02:55;;;;;;;2.13;1.67;;;24.70;53.00;;;;;;4921754;29;20449;-87
2022/04/13 11:05:22;;;;;;;5.70;2.63;;;24.60;55.70;;;;;;4912319;29;20506;-87
2022/04/13 11:07:57;;;;;;;6.43;1.80;;;24.90;52.20;;;;;;4904146;29;20540;-85
2022/04/13 11:10:23;;;;;;;3.10;1.77;;;;;;;;;;4908693;29;20437;-87
2022/04/13 11:12:49;;;;;;;7.37;2.37;;;24.20;52.90;;;;;;4907393;29;20452;-87
2022/04/13 11:15:14;;;;;;;5.50;2.00;;;24.20;52.60;;;;;;4920507;29;20521;-86
2022/04/13 11:17:41;;;;;;;7.63;2.87;;;24.00;53.70;;;;;;4926615;29;20541;-86
2022/04/13 11:20:21;;;;;;;6.60;2.50;;;23.90;54.50;;;;;;4924501;29;20186;-86
2022/04/13 11:23:07;;;;;;;9.80;2.53;;;24.00;54.00;;;;;;4913097;29;20516;-87
2022/04/13 11:25:47;;;;;;;8.10;2.50;;;24.00;54.00;;;;;;4905444;29;20531;-86
2022/04/13 11:28:26;;;;;;;5.70;2.23;;;24.20;54.10;;;;;;4905833;29;20487;-87
2022/04/13 11:31:09;;;;;;;7.20;2.30;;;24.10;54.50;;;;;;4910481;29;20511;-88
2022/04/13 11:33:43;;;;;;;4.40;2.33;;;24.40;54.40;;;;;;4910691;29;20446;-88
2022/04/13 11:36:09;;;;;;;10.87;2.00;;;24.40;53.40;;;;;;4910480;29;20674;-87
2022/04/13 11:38:36;;;;;;;4.27;1.63;;;24.50;54.60;;;;;;4907572;29;20454;-88
2022/04/13 11:41:07;;;;;;;10.10;2.57;;;24.40;55.90;;;;;;4908582;29;20436;-86
2022/04/13 11:43:33;;;;;;;6.07;1.83;;;24.40;55.10;;;;;;4908733;29;20530;-87
2022/04/13 11:45:59;;;;;;;5.10;3.00;;;24.80;56.50;;;;;;4911482;29;20462;-87
2022/04/13 11:48:35;;;;;;;3.67;2.53;;;24.80;57.00;;;;;;4907494;29;20474;-88
2022/04/13 11:51:34;;;;;;;7.10;2.00;;;24.50;54.80;;;;;;4920104;29;20452;-86
2022/04/13 11:54:10;;;;;;;8.23;2.83;;;24.70;55.90;;;;;;4889942;29;20547;-87
2022/04/13 11:56:38;;;;;;;7.50;2.00;;;24.70;55.10;;;;;;4911076;29;20505;-86
2022/04/13 11:59:05;;;;;;;8.57;2.60;;;25.10;56.40;;;;;;4918121;29;20522;-86
2022/04/13 12:01:33;;;;;;;6.63;2.90;;;25.40;55.00;;;;;;4905774;29;21063;-87
2022/04/13 12:03:59;;;;;;;5.03;2.30;;;;;;;;;;4906851;29;21073;-87
2022/04/13 12:06:26;;;;;;;3.10;2.67;;;25.30;56.60;;;;;;4903709;29;20474;-86
2022/04/13 12:08:53;;;;;;;5.00;2.37;;;25.60;57.30;;;;;;4906719;29;20434;-86
2022/04/13 12:11:21;;;;;;;5.70;2.60;;;24.20;56.10;;;;;;4906611;29;20460;-87
2022/04/13 12:13:58;;;;;;;4.50;2.03;;;24.20;56.70;;;;;;4905156;29;20475;-86
2022/04/13 12:16:29;;;;;;;8.83;2.50;;;24.00;58.60;;;;;;4904066;29;20481;-87
2022/04/13 12:19:00;;;;;;;6.63;2.93;;;24.40;58.90;;;;;;4905473;29;20449;-86
2022/04/13 12:21:29;;;;;;;4.50;2.43;;;25.30;56.00;;;;;;4902821;29;20467;-86
2022/04/13 12:23:55;;;;;;;4.83;2.50;;;25.20;56.40;;;;;;4904619;29;20473;-87
2022/04/13 12:26:30;;;;;;;9.57;2.50;;;25.50;56.40;;;;;;4900399;29;20501;-87
2022/04/13 12:28:56;;;;;;;6.07;1.90;;;25.30;55.90;;;;;;4905781;29;20193;-86
2022/04/13 12:31:22;;;;;;;11.67;3.03;;;;;;;;;;4907104;29;20442;-87
2022/04/13 12:33:51;;;;;;;9.63;2.90;;;25.40;57.20;;;;;;4928710;29;20179;-86
2022/04/13 12:36:17;;;;;;;6.50;2.53;;;;;;;;;;4927929;29;20471;-86
2022/04/13 12:38:54;;;;;;;6.23;3.10;;;26.20;55.60;;;;;;4926917;29;20441;-86
2022/04/13 12:41:21;;;;;;;13.60;2.97;;;26.20;56.10;;;;;;4925193;29;20447;-86
2022/04/13 12:43:59;;;;;;;3.77;2.60;;;26.70;57.30;;;;;;4906375;29;20824;-88
2022/04/13 12:46:29;;;;;;;12.37;3.17;;;26.70;55.40;;;;;;4912174;29;20473;-87
2022/04/13 12:49:02;;;;;;;7.30;2.70;;;26.70;55.80;;;;;;4906296;29;20444;-88
2022/04/13 12:51:36;;;;;;;7.70;2.60;;;26.90;56.50;;;;;;4910018;29;20484;-87
2022/04/13 12:54:03;;;;;;;7.33;2.80;;;26.60;55.00;;;;;;4917087;29;20440;-86
2022/04/13 12:56:31;;;;;;;4.93;2.80;;;26.20;55.30;;;;;;4932580;29;20465;-85